Time;durP1;ratioP1;P1;durP2;ratioP2;P2;SDS_P1;SDS_P2;PMS_P1;PMS_P2;Temp;Humidity;BMP_temperature;BMP_pressure;BME280_temperature;BME280_humidity;BME280_pressure;Samples;Min_cycle;Max_cycle;Signal;HPM_P1;HPM_P2
2023/05/08 00:01:11;;;;;;;9.27;8.30;;;13.30;99.90;;;;;;5090544;28;20199;-76
2023/05/08 00:03:39;;;;;;;11.30;8.77;;;13.30;99.90;;;;;;5095045;28;20211;-77
2023/05/08 00:06:08;;;;;;;9.67;8.67;;;13.40;99.90;;;;;;5087832;28;20203;-76
2023/05/08 00:08:36;;;;;;;11.93;9.07;;;13.40;99.90;;;;;;5072095;28;20678;-74
2023/05/08 00:11:04;;;;;;;10.47;8.70;;;13.40;99.90;;;;;;5072436;28;20314;-74
2023/05/08 00:13:32;;;;;;;9.97;8.53;;;13.30;99.90;;;;;;5072381;28;20225;-74
2023/05/08 00:16:01;;;;;;;9.73;8.23;;;13.30;99.90;;;;;;5071885;28;20219;-76
2023/05/08 00:18:29;;;;;;;11.03;8.83;;;13.30;99.90;;;;;;5072527;28;20203;-74
2023/05/08 00:20:57;;;;;;;9.80;8.60;;;13.40;99.90;;;;;;5072337;28;20536;-75
2023/05/08 00:23:25;;;;;;;10.80;8.93;;;13.40;99.90;;;;;;5087930;28;20638;-74
2023/05/08 00:25:53;;;;;;;11.77;9.27;;;13.30;99.90;;;;;;5092390;28;20367;-74
2023/05/08 00:28:21;;;;;;;10.60;8.67;;;13.30;99.90;;;;;;5091966;28;20285;-74
2023/05/08 00:30:49;;;;;;;10.33;8.87;;;13.30;99.90;;;;;;5074225;28;20216;-74
2023/05/08 00:33:19;;;;;;;9.90;8.37;;;13.30;99.90;;;;;;5071512;28;20222;-73
2023/05/08 00:35:47;;;;;;;10.60;8.57;;;13.30;99.90;;;;;;5071624;28;20704;-73
2023/05/08 00:38:15;;;;;;;10.40;9.13;;;13.30;99.90;;;;;;5071850;28;20211;-75
2023/05/08 00:40:43;;;;;;;10.07;8.87;;;13.30;99.90;;;;;;5071528;28;20669;-74
2023/05/08 00:43:11;;;;;;;10.13;8.63;;;13.20;99.90;;;;;;5071201;28;20199;-76
2023/05/08 00:45:40;;;;;;;10.73;8.77;;;13.20;99.90;;;;;;5071278;28;20214;-75
2023/05/08 00:48:08;;;;;;;11.00;8.90;;;13.20;99.90;;;;;;5070898;28;20291;-76
2023/05/08 00:50:37;;;;;;;10.90;9.30;;;13.20;99.90;;;;;;5073895;28;20673;-76
2023/05/08 00:53:05;;;;;;;10.57;9.33;;;13.20;99.90;;;;;;5075404;28;20210;-73
2023/05/08 00:55:34;;;;;;;10.40;9.00;;;13.20;99.90;;;;;;5077029;28;20220;-74
2023/05/08 00:58:02;;;;;;;11.17;9.33;;;13.10;99.90;;;;;;5075433;28;20205;-74
2023/05/08 01:00:31;;;;;;;10.93;9.10;;;13.10;99.90;;;;;;5074933;28;20302;-74
2023/05/08 01:03:00;;;;;;;9.33;8.33;;;13.10;99.90;;;;;;5074927;28;20208;-77
2023/05/08 01:05:29;;;;;;;11.33;9.33;;;13.10;99.90;;;;;;5075265;28;20203;-76
2023/05/08 01:07:59;;;;;;;10.60;8.73;;;13.00;99.90;;;;;;5074653;28;20642;-73
2023/05/08 01:10:32;;;;;;;10.97;8.67;;;13.00;99.90;;;;;;5075311;28;20211;-73
2023/05/08 01:13:13;;;;;;;12.23;8.57;;;13.00;99.90;;;;;;5074801;28;20215;-73
2023/05/08 01:15:50;;;;;;;10.93;8.97;;;13.00;99.90;;;;;;5074818;28;20211;-74
2023/05/08 01:18:23;;;;;;;10.13;9.13;;;12.90;99.90;;;;;;5074601;28;20253;-74
2023/05/08 01:20:56;;;;;;;11.63;9.47;;;12.90;99.90;;;;;;5081887;28;20203;-73
2023/05/08 01:23:44;;;;;;;10.20;8.60;;;12.90;99.90;;;;;;5074174;28;20673;-74
2023/05/08 01:26:38;;;;;;;11.13;8.80;;;12.90;99.90;;;;;;5074652;28;20311;-74
2023/05/08 01:29:55;;;;;;;9.77;8.77;;;12.90;99.90;;;;;;5073867;28;20660;-74
2023/05/08 01:32:27;;;;;;;10.90;9.17;;;12.90;99.90;;;;;;5074447;28;20216;-74
2023/05/08 01:35:03;;;;;;;11.07;9.20;;;12.80;99.90;;;;;;5074586;28;20560;-75
2023/05/08 01:37:47;;;;;;;11.93;9.43;;;12.80;99.90;;;;;;5074106;28;20242;-73
2023/05/08 01:40:25;;;;;;;10.67;9.57;;;12.70;99.90;;;;;;5074524;28;20550;-74
2023/05/08 01:43:03;;;;;;;10.90;9.80;;;12.70;99.90;;;;;;5057327;28;20214;-73
2023/05/08 01:45:38;;;;;;;12.50;9.77;;;12.70;99.90;;;;;;5074541;28;20584;-75
2023/05/08 01:48:11;;;;;;;10.93;9.17;;;12.60;99.90;;;;;;5074223;28;20282;-75
2023/05/08 01:50:44;;;;;;;10.73;9.50;;;12.60;99.90;;;;;;5074638;28;20218;-75
2023/05/08 01:53:21;;;;;;;12.50;10.17;;;12.50;99.90;;;;;;5073943;28;20298;-75
2023/05/08 01:55:53;;;;;;;12.40;10.37;;;12.40;99.90;;;;;;5074289;28;20223;-74
2023/05/08 01:58:23;;;;;;;10.60;9.40;;;12.40;99.90;;;;;;5074137;28;20198;-78
2023/05/08 02:00:51;;;;;;;10.20;9.17;;;12.20;99.90;;;;;;5072481;28;20688;-80
2023/05/08 02:03:22;;;;;;;9.60;8.60;;;12.20;99.90;;;;;;5085278;28;20268;-75
2023/05/08 02:05:52;;;;;;;13.23;8.87;;;12.10;99.90;;;;;;5094336;28;20574;-74
2023/05/08 02:08:22;;;;;;;10.67;9.03;;;12.00;99.90;;;;;;5094077;28;20217;-77
2023/05/08 02:10:51;;;;;;;11.83;8.50;;;11.90;99.90;;;;;;5093648;28;20207;-76
2023/05/08 02:13:20;;;;;;;11.07;9.00;;;11.80;99.90;;;;;;5094361;28;20249;-73
2023/05/08 02:15:53;;;;;;;9.57;8.60;;;11.70;99.90;;;;;;5094111;28;20230;-75
2023/05/08 02:18:24;;;;;;;9.37;8.37;;;11.70;99.90;;;;;;5094727;28;20289;-74
2023/05/08 02:20:55;;;;;;;9.40;8.40;;;11.60;99.90;;;;;;5075181;28;20218;-75
2023/05/08 02:23:26;;;;;;;9.90;8.90;;;11.50;99.90;;;;;;5073843;28;20225;-76
2023/05/08 02:25:55;;;;;;;10.37;8.33;;;11.50;99.90;;;;;;5073805;28;20211;-75
2023/05/08 02:28:24;;;;;;;10.43;8.53;;;11.40;99.90;;;;;;5073589;28;20207;-75
2023/05/08 02:30:53;;;;;;;8.97;8.07;;;11.40;99.90;;;;;;5073742;28;20208;-76
2023/05/08 02:33:23;;;;;;;9.53;8.63;;;11.30;99.90;;;;;;5076602;28;20223;-74
2023/05/08 02:35:53;;;;;;;9.03;8.13;;;11.30;99.90;;;;;;5073878;28;20211;-78
2023/05/08 02:38:25;;;;;;;8.80;7.80;;;11.30;99.90;;;;;;5073614;28;20590;-77
2023/05/08 02:40:58;;;;;;;8.87;7.97;;;11.20;99.90;;;;;;5073174;28;20210;-76
2023/05/08 02:43:26;;;;;;;8.77;7.87;;;11.20;99.90;;;;;;5073336;28;20299;-80
2023/05/08 02:46:12;;;;;;;10.00;7.83;;;11.20;99.90;;;;;;5073982;28;20290;-76
2023/05/08 02:48:51;;;;;;;10.50;8.17;;;11.20;99.90;;;;;;5073878;28;20231;-78
2023/05/08 02:51:23;;;;;;;9.07;8.17;;;11.10;99.90;;;;;;5074149;28;20286;-74
2023/05/08 02:53:58;;;;;;;9.13;8.23;;;11.10;99.90;;;;;;5073602;28;20242;-75
2023/05/08 02:56:34;;;;;;;10.37;8.37;;;11.10;99.90;;;;;;5073068;28;20667;-75
2023/05/08 02:59:15;;;;;;;8.80;7.90;;;11.00;99.90;;;;;;5073420;28;20553;-74
2023/05/08 03:01:49;;;;;;;9.40;8.40;;;11.00;99.90;;;;;;5073028;28;20294;-76
2023/05/08 03:04:26;;;;;;;9.27;8.27;;;11.00;99.90;;;;;;5072852;28;20654;-74
2023/05/08 03:06:57;;;;;;;10.00;8.67;;;11.00;99.90;;;;;;5072525;28;20661;-81
2023/05/08 03:09:31;;;;;;;9.20;8.30;;;11.00;99.90;;;;;;5073148;28;20286;-76
2023/05/08 03:12:04;;;;;;;10.87;8.33;;;10.90;99.90;;;;;;5054904;28;20313;-74
2023/05/08 03:14:41;;;;;;;10.03;8.70;;;10.90;99.90;;;;;;5073051;28;20415;-78
2023/05/08 03:17:13;;;;;;;9.30;8.03;;;10.80;99.90;;;;;;5074103;28;20223;-76
2023/05/08 03:19:47;;;;;;;10.00;9.00;;;10.80;99.90;;;;;;5074651;28;20549;-77
2023/05/08 03:22:16;;;;;;;8.57;7.67;;;10.80;99.90;;;;;;5073834;28;20335;-76
2023/05/08 03:24:46;;;;;;;9.90;8.90;;;10.80;99.90;;;;;;5074907;28;20217;-76
2023/05/08 03:27:15;;;;;;;10.13;8.60;;;10.80;99.90;;;;;;5074666;28;20199;-77
2023/05/08 03:29:45;;;;;;;10.07;8.80;;;10.80;99.90;;;;;;5073844;28;20298;-76
2023/05/08 03:32:14;;;;;;;9.47;8.47;;;10.70;99.90;;;;;;5071922;28;20238;-74
2023/05/08 03:34:44;;;;;;;10.30;8.57;;;10.70;99.90;;;;;;5072011;28;20574;-77
2023/05/08 03:37:12;;;;;;;9.13;8.07;;;10.70;99.90;;;;;;5076245;28;20222;-77
2023/05/08 03:39:41;;;;;;;9.80;8.83;;;10.60;99.90;;;;;;5072417;28;20580;-77
2023/05/08 03:42:19;;;;;;;10.23;8.97;;;10.60;99.90;;;;;;5076822;28;20243;-79
2023/05/08 03:44:50;;;;;;;9.33;8.33;;;10.70;99.90;;;;;;5074596;28;20213;-77
2023/05/08 03:47:19;;;;;;;9.70;8.70;;;10.60;99.90;;;;;;5071978;28;20192;-80
2023/05/08 03:49:49;;;;;;;10.00;9.00;;;10.60;99.90;;;;;;5072097;28;20231;-75
2023/05/08 03:52:18;;;;;;;10.00;8.70;;;10.50;99.90;;;;;;5072577;28;20206;-79
2023/05/08 03:54:46;;;;;;;10.10;8.63;;;10.50;99.90;;;;;;5082980;28;20213;-76
2023/05/08 03:57:14;;;;;;;9.60;8.70;;;10.50;99.90;;;;;;5092474;28;20227;-75
2023/05/08 03:59:49;;;;;;;11.67;8.60;;;10.40;99.90;;;;;;5092381;28;20581;-76
2023/05/08 04:02:28;;;;;;;11.47;9.00;;;10.50;99.90;;;;;;5092653;28;20210;-78
2023/05/08 04:05:05;;;;;;;10.13;9.13;;;10.50;99.90;;;;;;5075430;28;20208;-74
2023/05/08 04:07:39;;;;;;;10.10;9.10;;;10.50;99.90;;;;;;5072197;28;20188;-75
2023/05/08 04:10:11;;;;;;;10.23;9.03;;;10.50;99.90;;;;;;5071820;28;20210;-76
2023/05/08 04:12:45;;;;;;;11.40;9.13;;;10.50;99.90;;;;;;5071718;28;20257;-79
2023/05/08 04:15:22;;;;;;;12.20;8.90;;;10.40;99.90;;;;;;5072478;28;20212;-77
2023/05/08 04:17:53;;;;;;;10.20;9.20;;;10.40;99.90;;;;;;5089136;28;20233;-75
2023/05/08 04:20:27;;;;;;;11.10;8.67;;;10.40;99.90;;;;;;5090971;28;20210;-74
2023/05/08 04:22:57;;;;;;;9.90;8.90;;;10.40;99.90;;;;;;5082229;28;20214;-74
2023/05/08 04:25:26;;;;;;;9.33;8.43;;;10.40;99.90;;;;;;5074590;28;20219;-73
2023/05/08 04:27:56;;;;;;;9.93;8.93;;;10.30;99.90;;;;;;5075576;28;20203;-73
2023/05/08 04:30:25;;;;;;;10.33;9.00;;;10.30;99.90;;;;;;5076229;28;20203;-73
2023/05/08 04:32:53;;;;;;;10.73;9.63;;;10.30;99.90;;;;;;5074428;28;20231;-73
2023/05/08 04:35:23;;;;;;;9.50;8.60;;;10.30;99.90;;;;;;5075679;28;20208;-75
2023/05/08 04:37:52;;;;;;;9.83;8.83;;;10.30;99.90;;;;;;5075970;28;20314;-73
2023/05/08 04:40:20;;;;;;;10.37;9.33;;;10.30;99.90;;;;;;5075964;28;20234;-75
2023/05/08 04:42:48;;;;;;;10.53;9.20;;;10.30;99.90;;;;;;5075384;28;20677;-75
2023/05/08 04:45:17;;;;;;;12.27;9.60;;;10.30;99.90;;;;;;5076126;28;20298;-74
2023/05/08 04:47:45;;;;;;;10.97;9.03;;;10.30;99.90;;;;;;5075314;28;20204;-74
2023/05/08 04:50:13;;;;;;;10.00;9.00;;;10.30;99.90;;;;;;5074874;28;20212;-76
2023/05/08 04:52:43;;;;;;;10.30;9.10;;;10.40;99.90;;;;;;5093203;28;20306;-73
2023/05/08 04:55:11;;;;;;;9.60;8.70;;;10.40;99.90;;;;;;5078216;28;20294;-78
2023/05/08 04:57:39;;;;;;;11.00;8.70;;;10.40;99.90;;;;;;5074838;28;20693;-77
2023/05/08 05:00:08;;;;;;;9.97;8.97;;;10.50;99.90;;;;;;5075752;28;20210;-76
2023/05/08 05:02:36;;;;;;;9.67;8.70;;;10.50;99.90;;;;;;5074347;28;20286;-73
2023/05/08 05:05:05;;;;;;;11.33;8.90;;;10.60;99.90;;;;;;5076251;28;20207;-74
2023/05/08 05:07:33;;;;;;;10.30;8.90;;;10.50;99.90;;;;;;5075865;28;20294;-78
2023/05/08 05:10:03;;;;;;;11.10;9.30;;;10.60;99.90;;;;;;5078674;28;20203;-80
2023/05/08 05:12:31;;;;;;;10.73;9.13;;;10.80;99.90;;;;;;5093943;28;20215;-78
2023/05/08 05:14:59;;;;;;;9.90;8.37;;;10.80;99.90;;;;;;5096767;28;20207;-78
2023/05/08 05:17:30;;;;;;;10.20;8.97;;;10.70;99.90;;;;;;5084397;28;20249;-77
2023/05/08 05:19:58;;;;;;;11.17;8.80;;;10.80;99.90;;;;;;5075231;28;20215;-79
2023/05/08 05:22:27;;;;;;;9.93;8.93;;;10.80;99.90;;;;;;5075703;28;20215;-77
2023/05/08 05:24:55;;;;;;;9.67;8.67;;;10.80;99.90;;;;;;5091830;28;20542;-80
2023/05/08 05:27:25;;;;;;;9.80;8.80;;;10.70;99.90;;;;;;5095631;28;20199;-80
2023/05/08 05:29:53;;;;;;;10.37;9.27;;;10.50;99.90;;;;;;5095157;28;20233;-76
2023/05/08 05:32:21;;;;;;;10.00;8.93;;;10.50;99.90;;;;;;5077557;28;20218;-78
2023/05/08 05:34:49;;;;;;;10.03;8.90;;;10.50;99.90;;;;;;5074383;28;20682;-74
2023/05/08 05:37:18;;;;;;;10.47;9.03;;;10.50;99.90;;;;;;5073334;28;20207;-78
2023/05/08 05:39:46;;;;;;;10.47;9.00;;;10.50;99.90;;;;;;5074974;28;20229;-79
2023/05/08 05:42:14;;;;;;;10.90;9.20;;;10.40;99.90;;;;;;5093670;28;20566;-79
2023/05/08 05:44:44;;;;;;;11.17;9.67;;;10.30;99.90;;;;;;5096076;28;20298;-76
2023/05/08 05:47:12;;;;;;;10.10;9.07;;;10.30;99.90;;;;;;5096040;28;20218;-78
2023/05/08 05:49:41;;;;;;;10.63;9.53;;;10.30;99.90;;;;;;5092756;28;20207;-74
2023/05/08 05:52:10;;;;;;;10.70;9.53;;;10.40;99.90;;;;;;5074666;28;20234;-78
2023/05/08 05:54:38;;;;;;;10.57;9.50;;;10.40;99.90;;;;;;5074937;28;20211;-81
2023/05/08 05:57:06;;;;;;;10.30;9.20;;;10.50;99.90;;;;;;5075047;28;20692;-73
2023/05/08 05:59:34;;;;;;;10.43;9.43;;;10.50;99.90;;;;;;5075027;28;20658;-79
2023/05/08 06:02:04;;;;;;;11.37;9.83;;;10.50;99.90;;;;;;5074499;28;20207;-73
2023/05/08 06:04:32;;;;;;;10.43;9.43;;;10.50;99.90;;;;;;5076250;28;20237;-74
2023/05/08 06:07:00;;;;;;;10.20;9.10;;;10.60;99.90;;;;;;5087110;28;20219;-75
2023/05/08 06:09:28;;;;;;;10.00;9.00;;;10.60;99.90;;;;;;5087687;28;20215;-75
2023/05/08 06:11:57;;;;;;;11.27;9.17;;;10.80;99.90;;;;;;5089769;28;20214;-78
2023/05/08 06:14:25;;;;;;;10.93;8.93;;;10.70;99.90;;;;;;5093687;28;20213;-79
2023/05/08 06:16:53;;;;;;;10.53;9.23;;;10.60;99.90;;;;;;5082520;28;20253;-80
2023/05/08 06:19:23;;;;;;;11.03;9.83;;;10.50;99.90;;;;;;5074219;28;20314;-77
2023/05/08 06:21:51;;;;;;;13.47;10.07;;;10.50;99.90;;;;;;5073688;28;20249;-77
2023/05/08 06:24:19;;;;;;;10.83;9.73;;;10.50;99.90;;;;;;5074731;28;20295;-76
2023/05/08 06:26:47;;;;;;;11.07;9.40;;;10.50;99.90;;;;;;5073973;28;20218;-76
2023/05/08 06:29:15;;;;;;;11.23;10.00;;;10.60;99.90;;;;;;5073906;28;20204;-80
2023/05/08 06:31:44;;;;;;;13.00;10.63;;;10.50;99.90;;;;;;5075488;28;20299;-79
2023/05/08 06:34:12;;;;;;;11.07;9.60;;;10.40;99.90;;;;;;5073732;28;20211;-75
2023/05/08 06:36:42;;;;;;;12.03;10.50;;;10.30;99.90;;;;;;5074702;28;20574;-75
2023/05/08 06:39:10;;;;;;;12.03;10.83;;;10.00;99.90;;;;;;5074276;28;20323;-74
2023/05/08 06:41:38;;;;;;;11.50;10.30;;;10.00;99.90;;;;;;5074197;28;20653;-73
2023/05/08 06:44:06;;;;;;;12.00;10.60;;;10.10;99.90;;;;;;5073645;28;20212;-75
2023/05/08 06:46:34;;;;;;;12.03;10.60;;;10.20;99.90;;;;;;5073678;28;20548;-79
2023/05/08 06:49:02;;;;;;;11.77;10.47;;;10.30;99.90;;;;;;5073894;28;20665;-74
2023/05/08 06:51:30;;;;;;;11.40;10.13;;;10.40;99.90;;;;;;5073715;28;20657;-74
2023/05/08 06:54:00;;;;;;;11.47;10.20;;;10.50;99.90;;;;;;5073823;28;20215;-74
2023/05/08 06:56:28;;;;;;;12.10;10.90;;;10.50;99.90;;;;;;5073468;28;20207;-75
2023/05/08 06:58:56;;;;;;;11.43;10.23;;;10.70;99.90;;;;;;5087323;28;20222;-75
2023/05/08 07:01:36;;;;;;;16.50;11.17;;;10.80;99.90;;;;;;5094097;28;20244;-75
2023/05/08 07:04:04;;;;;;;11.80;10.60;;;10.80;99.90;;;;;;5093841;28;20203;-79
2023/05/08 07:06:33;;;;;;;14.37;10.90;;;10.80;99.90;;;;;;5094222;28;20203;-75
2023/05/08 07:09:02;;;;;;;14.30;10.60;;;10.80;99.90;;;;;;5092789;28;20215;-76
2023/05/08 07:11:30;;;;;;;13.70;10.93;;;10.80;99.90;;;;;;5094322;28;20668;-79
2023/05/08 07:13:59;;;;;;;13.23;11.20;;;11.10;99.90;;;;;;5093285;28;20565;-79
2023/05/08 07:16:27;;;;;;;12.27;10.97;;;10.80;99.90;;;;;;5092342;28;20207;-76
2023/05/08 07:18:55;;;;;;;11.73;10.53;;;11.30;99.90;;;;;;5093137;28;20230;-75
2023/05/08 07:21:23;;;;;;;11.57;10.30;;;11.60;99.90;;;;;;5093127;28;20199;-75
2023/05/08 07:23:52;;;;;;;11.50;10.30;;;11.90;99.90;;;;;;5092598;28;20226;-74
2023/05/08 07:26:22;;;;;;;11.30;10.20;;;11.90;99.90;;;;;;5094031;28;20272;-75
2023/05/08 07:28:52;;;;;;;11.37;10.13;;;12.10;99.90;;;;;;5096135;28;20205;-75
2023/05/08 07:31:21;;;;;;;11.43;10.20;;;12.20;99.90;;;;;;5098300;28;20211;-75
2023/05/08 07:33:49;;;;;;;11.57;10.37;;;12.30;99.90;;;;;;5082883;28;20566;-75
2023/05/08 07:36:17;;;;;;;13.57;10.30;;;12.50;99.90;;;;;;5076383;28;20618;-77
2023/05/08 07:38:45;;;;;;;11.47;10.27;;;12.10;99.90;;;;;;5074075;28;20314;-75
2023/05/08 07:41:13;;;;;;;10.97;9.87;;;12.80;99.90;;;;;;5075013;28;20665;-77
2023/05/08 07:43:44;;;;;;;10.93;9.73;;;12.80;99.90;;;;;;5075720;28;20207;-76
2023/05/08 07:46:17;;;;;;;12.63;10.17;;;13.40;99.90;;;;;;5074005;28;20261;-77
2023/05/08 07:48:45;;;;;;;12.93;11.63;;;13.70;99.90;;;;;;5073485;28;20618;-75
2023/05/08 07:51:14;;;;;;;13.83;10.73;;;13.30;99.90;;;;;;5082816;28;20214;-74
2023/05/08 07:53:42;;;;;;;12.60;11.40;;;13.10;99.90;;;;;;5074785;28;20268;-75
2023/05/08 07:56:10;;;;;;;12.17;10.83;;;12.60;99.90;;;;;;5075154;28;20211;-74
2023/05/08 07:58:39;;;;;;;13.00;11.70;;;12.70;99.90;;;;;;5078285;28;20211;-75
2023/05/08 08:01:08;;;;;;;12.93;11.63;;;12.40;99.90;;;;;;5096298;28;20301;-75
2023/05/08 08:03:37;;;;;;;12.70;11.40;;;12.50;99.90;;;;;;5093299;28;20293;-76
2023/05/08 08:06:05;;;;;;;12.60;11.37;;;12.50;99.90;;;;;;5096069;28;20206;-77
2023/05/08 08:08:34;;;;;;;12.87;11.27;;;12.80;99.90;;;;;;5078706;28;20307;-74
2023/05/08 08:11:02;;;;;;;12.93;10.97;;;13.00;99.90;;;;;;5081707;28;20735;-76
2023/05/08 08:13:34;;;;;;;13.10;11.70;;;12.80;99.90;;;;;;5105118;28;20779;-76
2023/05/08 08:16:04;;;;;;;13.80;11.13;;;12.70;99.90;;;;;;5101506;28;20205;-74
2023/05/08 08:18:36;;;;;;;11.87;10.67;;;13.10;99.90;;;;;;5099153;28;20213;-76
2023/05/08 08:21:08;;;;;;;12.43;10.83;;;13.70;99.90;;;;;;5098869;28;20706;-75
2023/05/08 08:23:37;;;;;;;11.83;10.63;;;14.10;99.90;;;;;;5099866;28;20210;-73
2023/05/08 08:26:05;;;;;;;13.30;10.20;;;14.40;99.90;;;;;;5099233;28;20691;-80
2023/05/08 08:28:34;;;;;;;11.07;9.97;;;14.90;99.90;;;;;;5097384;28;20686;-74
2023/05/08 08:31:02;;;;;;;10.97;9.87;;;15.40;99.90;;;;;;5097945;28;20202;-76
2023/05/08 08:33:30;;;;;;;11.67;10.37;;;15.80;99.90;;;;;;5092700;28;20234;-77
2023/05/08 08:35:59;;;;;;;11.30;10.20;;;16.40;99.90;;;;;;5088872;28;20625;-74
2023/05/08 08:38:28;;;;;;;12.50;10.47;;;15.80;99.90;;;;;;5093122;28;20558;-77
2023/05/08 08:40:56;;;;;;;11.87;10.53;;;15.70;99.90;;;;;;5092282;28;20218;-78
2023/05/08 08:43:24;;;;;;;11.67;10.50;;;16.00;99.90;;;;;;5093167;28;20291;-76
2023/05/08 08:45:52;;;;;;;11.10;10.00;;;16.20;99.90;;;;;;5091713;28;20209;-76
2023/05/08 08:48:24;;;;;;;10.90;9.47;;;16.00;99.90;;;;;;5093827;28;20207;-78
2023/05/08 08:50:57;;;;;;;11.67;10.23;;;16.00;99.90;;;;;;5091135;28;20199;-76
2023/05/08 08:53:32;;;;;;;10.73;9.73;;;16.20;99.90;;;;;;5093259;28;20203;-75
2023/05/08 08:56:04;;;;;;;11.83;10.63;;;15.70;99.90;;;;;;5091464;28;20535;-75
2023/05/08 08:58:36;;;;;;;12.40;10.43;;;15.70;99.90;;;;;;5094114;28;20265;-79
2023/05/08 09:01:07;;;;;;;11.40;10.20;;;15.50;99.90;;;;;;5093320;28;20680;-76
2023/05/08 09:03:35;;;;;;;11.27;10.13;;;16.00;99.90;;;;;;5093690;28;20234;-77
2023/05/08 09:06:04;;;;;;;12.70;10.57;;;16.00;99.90;;;;;;5093804;28;20558;-75
2023/05/08 09:08:34;;;;;;;11.70;10.27;;;16.40;99.90;;;;;;5089427;28;20278;-78
2023/05/08 09:11:02;;;;;;;12.60;10.23;;;17.00;99.90;;;;;;5092909;28;20246;-80
2023/05/08 09:13:30;;;;;;;11.50;9.83;;;17.30;99.90;;;;;;5095159;28;20627;-77
2023/05/08 09:15:59;;;;;;;13.13;10.27;;;16.90;99.90;;;;;;5098380;28;20358;-77
2023/05/08 09:18:27;;;;;;;11.13;9.97;;;16.30;99.90;;;;;;5101004;28;20225;-78
2023/05/08 09:20:59;;;;;;;10.83;9.77;;;15.90;99.90;;;;;;5106116;28;20720;-77
2023/05/08 09:23:28;;;;;;;11.70;10.60;;;16.00;99.90;;;;;;5103256;28;20198;-78
2023/05/08 09:25:58;;;;;;;10.93;9.90;;;16.10;99.90;;;;;;5107474;28;20202;-80
2023/05/08 09:28:26;;;;;;;12.03;9.83;;;15.40;99.90;;;;;;5102856;28;20294;-78
2023/05/08 09:30:56;;;;;;;11.67;10.50;;;15.80;99.90;;;;;;5104338;28;20206;-76
2023/05/08 09:33:25;;;;;;;11.37;10.27;;;16.30;99.90;;;;;;5107362;28;20203;-77
2023/05/08 09:35:54;;;;;;;10.90;9.80;;;17.10;99.90;;;;;;5099866;28;20203;-78
2023/05/08 09:38:44;;;;;;;11.03;9.93;;;17.90;99.90;;;;;;5107637;28;20619;-76
2023/05/08 09:41:14;;;;;;;11.27;9.37;;;18.70;99.90;;;;;;5099923;28;20242;-75
2023/05/08 09:43:44;;;;;;;11.10;10.00;;;19.40;99.90;;;;;;5106879;28;20233;-81
2023/05/08 09:46:23;;;;;;;12.00;9.67;;;18.80;99.90;;;;;;5106338;28;20203;-78
2023/05/08 09:48:53;;;;;;;8.80;7.93;;;19.30;99.90;;;;;;5105345;28;20206;-79
2023/05/08 09:51:22;;;;;;;10.37;9.37;;;19.80;99.90;;;;;;5097256;28;20707;-80
2023/05/08 09:53:52;;;;;;;10.17;9.10;;;20.10;99.90;;;;;;5103142;28;20199;-78
2023/05/08 09:56:38;;;;;;;9.67;8.67;;;20.30;98.10;;;;;;5104606;28;20230;-77
2023/05/08 09:59:23;;;;;;;9.70;8.80;;;20.50;99.90;;;;;;5103433;28;20195;-77
2023/05/08 10:01:52;;;;;;;11.03;9.37;;;20.60;97.80;;;;;;5104854;28;20277;-77
2023/05/08 10:04:32;;;;;;;10.77;9.50;;;19.60;99.30;;;;;;5101202;28;20202;-78
2023/05/08 10:07:01;;;;;;;10.67;9.57;;;19.70;99.90;;;;;;5099891;28;20191;-77
2023/05/08 10:09:30;;;;;;;10.90;9.87;;;19.20;99.90;;;;;;5103982;28;20248;-76
2023/05/08 10:12:15;;;;;;;11.10;10.00;;;18.80;99.90;;;;;;5107124;28;20279;-77
2023/05/08 10:14:44;;;;;;;11.10;10.03;;;18.90;99.90;;;;;;5107678;28;20219;-74
2023/05/08 10:17:17;;;;;;;9.80;8.90;;;19.30;99.90;;;;;;5108823;28;20266;-77
2023/05/08 10:19:48;;;;;;;10.73;9.63;;;19.70;99.90;;;;;;5104786;28;20195;-78
2023/05/08 10:22:20;;;;;;;10.80;9.80;;;20.00;99.90;;;;;;5097358;28;20207;-77
2023/05/08 10:24:53;;;;;;;11.13;10.00;;;19.80;98.00;;;;;;5105919;28;20262;-76
2023/05/08 10:27:30;;;;;;;11.63;10.53;;;19.50;99.90;;;;;;5098400;28;20197;-77
2023/05/08 10:30:02;;;;;;;12.43;11.10;;;19.00;99.90;;;;;;5097779;28;20664;-77
2023/05/08 10:32:39;;;;;;;11.20;10.00;;;18.50;99.90;;;;;;5095047;28;20203;-76
2023/05/08 10:35:10;;;;;;;11.60;10.40;;;18.70;99.90;;;;;;5094622;28;20205;-77
2023/05/08 10:37:40;;;;;;;11.83;10.63;;;18.30;99.90;;;;;;5095080;28;20195;-78
2023/05/08 10:40:10;;;;;;;11.63;10.43;;;18.90;99.90;;;;;;5094711;28;20225;-76
2023/05/08 10:42:40;;;;;;;11.80;10.63;;;19.40;99.90;;;;;;5093530;28;20226;-75
2023/05/08 10:45:10;;;;;;;11.73;10.63;;;19.10;99.90;;;;;;5094604;28;20232;-79
2023/05/08 10:48:03;;;;;;;12.93;11.73;;;18.40;99.90;;;;;;5096285;28;20633;-81
2023/05/08 10:50:42;;;;;;;12.43;11.23;;;18.20;99.90;;;;;;5089728;28;20692;-76
2023/05/08 10:53:16;;;;;;;11.73;10.53;;;17.90;99.90;;;;;;5095884;28;20229;-79
2023/05/08 10:55:49;;;;;;;12.07;10.90;;;18.90;99.90;;;;;;5092001;28;20208;-77
2023/05/08 10:58:30;;;;;;;11.17;10.07;;;18.70;99.90;;;;;;5096466;28;20304;-77
2023/05/08 11:01:18;;;;;;;11.93;10.83;;;18.90;99.90;;;;;;5094704;28;20258;-77
2023/05/08 11:03:53;;;;;;;11.40;10.20;;;19.00;99.90;;;;;;5090735;28;20203;-76
2023/05/08 11:06:47;;;;;;;11.33;10.13;;;18.80;99.90;;;;;;5092035;28;20211;-78
2023/05/08 11:09:23;;;;;;;11.97;10.77;;;19.20;99.90;;;;;;5087471;28;20203;-79
2023/05/08 11:12:05;;;;;;;11.47;10.37;;;18.60;99.90;;;;;;5094075;28;21031;-75
2023/05/08 11:14:37;;;;;;;12.30;10.23;;;19.10;99.90;;;;;;5090295;28;20234;-77
2023/05/08 11:17:07;;;;;;;12.00;10.90;;;19.60;99.90;;;;;;5093509;28;20680;-78
2023/05/08 11:19:37;;;;;;;12.10;10.90;;;19.60;99.90;;;;;;5094420;28;20298;-74
2023/05/08 11:22:17;;;;;;;11.50;10.30;;;19.20;99.90;;;;;;5093443;28;20222;-78
2023/05/08 11:24:49;;;;;;;12.93;11.63;;;19.20;99.90;;;;;;5090699;28;20633;-76
2023/05/08 11:27:18;;;;;;;11.97;10.87;;;18.50;99.90;;;;;;5093850;28;20213;-74
2023/05/08 11:30:20;;;;;;;12.33;11.23;;;18.20;99.90;;;;;;5093737;28;20234;-75
2023/05/08 11:32:59;;;;;;;13.27;12.07;;;18.10;99.90;;;;;;5088966;28;20199;-76
2023/05/08 11:35:42;;;;;;;11.70;10.60;;;18.10;99.90;;;;;;5091073;28;20203;-75
2023/05/08 11:38:22;;;;;;;11.90;10.80;;;18.40;99.90;;;;;;5093089;28;20195;-76
2023/05/08 11:40:59;;;;;;;12.43;11.23;;;18.50;99.90;;;;;;5091658;28;20222;-76
2023/05/08 11:43:59;;;;;;;12.93;11.73;;;18.40;99.90;;;;;;5092775;28;20614;-77
2023/05/08 11:46:39;;;;;;;12.63;11.47;;;18.70;99.90;;;;;;5092501;28;20223;-76
2023/05/08 11:49:12;;;;;;;12.67;11.37;;;18.90;99.90;;;;;;5090902;28;20209;-77
2023/05/08 11:51:43;;;;;;;10.90;9.77;;;19.00;99.90;;;;;;5092057;28;20219;-77
2023/05/08 11:54:17;;;;;;;13.10;11.77;;;19.30;99.90;;;;;;5093417;28;20284;-77
2023/05/08 11:56:48;;;;;;;12.00;10.87;;;19.50;99.90;;;;;;5093460;28;20645;-75
2023/05/08 11:59:19;;;;;;;12.80;11.60;;;19.60;99.90;;;;;;5094440;28;20206;-75
2023/05/08 12:01:51;;;;;;;13.27;11.87;;;19.00;99.90;;;;;;5101161;28;20226;-76
2023/05/08 12:04:22;;;;;;;12.57;11.37;;;18.70;99.90;;;;;;5094345;28;20206;-77
2023/05/08 12:06:56;;;;;;;12.33;11.10;;;19.20;99.90;;;;;;5093322;28;20213;-76
2023/05/08 12:09:24;;;;;;;11.47;10.37;;;19.10;99.90;;;;;;5093777;28;20312;-77
2023/05/08 12:11:57;;;;;;;14.17;12.47;;;19.00;99.90;;;;;;5092507;28;20210;-77
2023/05/08 12:14:26;;;;;;;12.80;11.60;;;18.50;99.90;;;;;;5090574;28;20211;-77
2023/05/08 12:16:55;;;;;;;13.37;11.90;;;18.30;99.90;;;;;;5093659;28;20293;-75
2023/05/08 12:19:23;;;;;;;13.10;11.80;;;18.40;99.90;;;;;;5093311;28;20209;-76
2023/05/08 12:21:51;;;;;;;12.77;11.53;;;18.60;99.90;;;;;;5093622;28;20229;-77
2023/05/08 12:24:22;;;;;;;13.00;11.80;;;18.50;99.90;;;;;;5093874;28;20682;-75
2023/05/08 12:26:54;;;;;;;13.77;12.50;;;18.70;99.90;;;;;;5089137;28;20190;-76
2023/05/08 12:29:22;;;;;;;12.80;11.70;;;18.50;99.90;;;;;;5091982;28;20231;-75
2023/05/08 12:31:55;;;;;;;12.73;11.53;;;18.50;99.90;;;;;;5093213;28;20187;-75
2023/05/08 12:34:24;;;;;;;12.60;11.33;;;18.70;99.90;;;;;;5092910;28;20199;-77
2023/05/08 12:37:02;;;;;;;12.67;11.40;;;19.00;99.90;;;;;;5092330;28;20210;-77
2023/05/08 12:39:35;;;;;;;12.17;10.97;;;19.10;99.90;;;;;;5090459;28;20264;-77
2023/05/08 12:42:04;;;;;;;11.90;10.77;;;19.00;99.90;;;;;;5092752;28;20700;-76
2023/05/08 12:44:32;;;;;;;13.33;12.00;;;19.20;99.90;;;;;;5093065;28;20230;-77
2023/05/08 12:47:04;;;;;;;13.53;12.13;;;19.10;99.90;;;;;;5096051;28;20290;-75
2023/05/08 12:49:33;;;;;;;12.50;11.27;;;19.10;99.90;;;;;;5096496;28;20539;-77
2023/05/08 12:52:03;;;;;;;11.67;10.53;;;18.60;99.90;;;;;;5096068;28;20640;-78
2023/05/08 12:54:39;;;;;;;11.03;9.93;;;18.80;99.90;;;;;;5097505;28;20253;-77